sensor_id;sensor_type;location;lat;lon;timestamp;temperature;humidity
33943;DHT22;66763;47.856;17.462;2023-02-15T00:01:14;12.20;45.10
33943;DHT22;66763;47.856;17.462;2023-02-15T00:03:39;12.20;45.00
33943;DHT22;66763;47.856;17.462;2023-02-15T00:06:05;12.20;45.10
33943;DHT22;66763;47.856;17.462;2023-02-15T00:08:30;12.20;45.10
33943;DHT22;66763;47.856;17.462;2023-02-15T00:11:06;12.20;45.10
33943;DHT22;66763;47.856;17.462;2023-02-15T00:13:31;12.20;45.10
33943;DHT22;66763;47.856;17.462;2023-02-15T00:16:04;12.20;45.20
33943;DHT22;66763;47.856;17.462;2023-02-15T00:18:30;12.10;45.20
33943;DHT22;66763;47.856;17.462;2023-02-15T00:20:56;12.10;45.20
33943;DHT22;66763;47.856;17.462;2023-02-15T00:23:21;12.10;45.10
33943;DHT22;66763;47.856;17.462;2023-02-15T00:25:47;12.10;45.20
33943;DHT22;66763;47.856;17.462;2023-02-15T00:28:12;12.10;45.20
33943;DHT22;66763;47.856;17.462;2023-02-15T00:30:38;12.10;45.20
33943;DHT22;66763;47.856;17.462;2023-02-15T00:33:03;12.10;45.10
33943;DHT22;66763;47.856;17.462;2023-02-15T00:35:29;12.10;45.20
33943;DHT22;66763;47.856;17.462;2023-02-15T00:37:55;12.10;45.10
33943;DHT22;66763;47.856;17.462;2023-02-15T00:40:21;12.10;45.10
33943;DHT22;66763;47.856;17.462;2023-02-15T00:42:46;12.10;45.10
33943;DHT22;66763;47.856;17.462;2023-02-15T00:45:12;12.10;45.10
33943;DHT22;66763;47.856;17.462;2023-02-15T00:47:37;12.10;45.10
33943;DHT22;66763;47.856;17.462;2023-02-15T00:50:03;12.00;45.10
33943;DHT22;66763;47.856;17.462;2023-02-15T00:52:28;12.00;45.00
33943;DHT22;66763;47.856;17.462;2023-02-15T00:54:54;12.00;45.10
33943;DHT22;66763;47.856;17.462;2023-02-15T00:57:19;12.00;45.00
33943;DHT22;66763;47.856;17.462;2023-02-15T00:59:45;12.00;45.00
33943;DHT22;66763;47.856;17.462;2023-02-15T01:02:10;12.00;45.10
33943;DHT22;66763;47.856;17.462;2023-02-15T01:04:36;12.00;45.10
33943;DHT22;66763;47.856;17.462;2023-02-15T01:07:01;11.90;45.00
33943;DHT22;66763;47.856;17.462;2023-02-15T01:09:28;12.00;45.00
33943;DHT22;66763;47.856;17.462;2023-02-15T01:11:54;11.90;45.00
33943;DHT22;66763;47.856;17.462;2023-02-15T01:14:19;11.90;45.00
33943;DHT22;66763;47.856;17.462;2023-02-15T01:16:45;11.90;45.00
33943;DHT22;66763;47.856;17.462;2023-02-15T01:19:10;11.90;45.10
33943;DHT22;66763;47.856;17.462;2023-02-15T01:21:36;11.90;45.00
33943;DHT22;66763;47.856;17.462;2023-02-15T01:24:02;11.90;45.00
33943;DHT22;66763;47.856;17.462;2023-02-15T01:26:27;11.90;45.00
33943;DHT22;66763;47.856;17.462;2023-02-15T01:28:53;11.90;45.00
33943;DHT22;66763;47.856;17.462;2023-02-15T01:31:19;11.90;45.00
33943;DHT22;66763;47.856;17.462;2023-02-15T01:33:45;11.90;45.00
33943;DHT22;66763;47.856;17.462;2023-02-15T01:36:11;11.80;45.00
33943;DHT22;66763;47.856;17.462;2023-02-15T01:38:37;11.80;45.00
33943;DHT22;66763;47.856;17.462;2023-02-15T01:41:02;11.80;45.00
33943;DHT22;66763;47.856;17.462;2023-02-15T01:43:48;11.80;45.00
33943;DHT22;66763;47.856;17.462;2023-02-15T01:46:14;11.80;45.00
33943;DHT22;66763;47.856;17.462;2023-02-15T01:48:45;11.70;45.00
33943;DHT22;66763;47.856;17.462;2023-02-15T01:51:11;11.80;45.00
33943;DHT22;66763;47.856;17.462;2023-02-15T01:53:42;11.70;45.00
33943;DHT22;66763;47.856;17.462;2023-02-15T01:56:12;11.70;45.00
33943;DHT22;66763;47.856;17.462;2023-02-15T01:58:39;11.70;45.00
33943;DHT22;66763;47.856;17.462;2023-02-15T02:01:05;11.70;45.00
33943;DHT22;66763;47.856;17.462;2023-02-15T02:06:01;11.70;45.00
33943;DHT22;66763;47.856;17.462;2023-02-15T02:08:27;11.70;45.00
33943;DHT22;66763;47.856;17.462;2023-02-15T02:10:53;11.70;45.00
33943;DHT22;66763;47.856;17.462;2023-02-15T02:13:18;11.70;45.00
33943;DHT22;66763;47.856;17.462;2023-02-15T02:15:47;11.70;45.00
33943;DHT22;66763;47.856;17.462;2023-02-15T02:33:45;11.60;45.60
33943;DHT22;66763;47.856;17.462;2023-02-15T02:44:21;11.60;44.90
33943;DHT22;66763;47.856;17.462;2023-02-15T02:49:13;11.60;45.00
33943;DHT22;66763;47.856;17.462;2023-02-15T02:51:39;11.60;44.90
33943;DHT22;66763;47.856;17.462;2023-02-15T02:54:05;11.60;45.00
33943;DHT22;66763;47.856;17.462;2023-02-15T02:56:39;11.60;45.00
33943;DHT22;66763;47.856;17.462;2023-02-15T02:59:16;11.60;44.90
33943;DHT22;66763;47.856;17.462;2023-02-15T03:02:05;11.60;45.00
33943;DHT22;66763;47.856;17.462;2023-02-15T03:04:29;11.50;44.90
33943;DHT22;66763;47.856;17.462;2023-02-15T03:06:57;11.60;44.90
33943;DHT22;66763;47.856;17.462;2023-02-15T03:09:25;11.60;44.90
33943;DHT22;66763;47.856;17.462;2023-02-15T03:12:00;11.60;44.90
33943;DHT22;66763;47.856;17.462;2023-02-15T03:14:25;11.50;44.90
33943;DHT22;66763;47.856;17.462;2023-02-15T03:16:51;11.60;44.90
33943;DHT22;66763;47.856;17.462;2023-02-15T03:19:35;11.60;44.90
33943;DHT22;66763;47.856;17.462;2023-02-15T03:22:13;11.60;44.90
33943;DHT22;66763;47.856;17.462;2023-02-15T03:24:41;11.50;44.80
33943;DHT22;66763;47.856;17.462;2023-02-15T03:27:12;11.50;44.80
33943;DHT22;66763;47.856;17.462;2023-02-15T03:29:43;11.50;44.80
33943;DHT22;66763;47.856;17.462;2023-02-15T03:32:10;11.50;44.80
33943;DHT22;66763;47.856;17.462;2023-02-15T03:34:36;11.50;44.80
33943;DHT22;66763;47.856;17.462;2023-02-15T03:37:13;11.50;44.80
33943;DHT22;66763;47.856;17.462;2023-02-15T03:39:45;11.50;44.80
33943;DHT22;66763;47.856;17.462;2023-02-15T03:42:20;11.50;44.80
33943;DHT22;66763;47.856;17.462;2023-02-15T03:47:13;11.40;44.80
33943;DHT22;66763;47.856;17.462;2023-02-15T03:49:57;11.40;44.80
33943;DHT22;66763;47.856;17.462;2023-02-15T03:52:25;11.40;44.80
33943;DHT22;66763;47.856;17.462;2023-02-15T03:54:52;11.40;44.90
33943;DHT22;66763;47.856;17.462;2023-02-15T03:57:25;11.40;44.80
33943;DHT22;66763;47.856;17.462;2023-02-15T04:03:15;11.40;44.90
33943;DHT22;66763;47.856;17.462;2023-02-15T04:05:45;11.40;44.90
33943;DHT22;66763;47.856;17.462;2023-02-15T04:08:11;11.30;44.90
33943;DHT22;66763;47.856;17.462;2023-02-15T04:10:36;11.30;44.90
33943;DHT22;66763;47.856;17.462;2023-02-15T04:13:18;11.30;45.00
33943;DHT22;66763;47.856;17.462;2023-02-15T04:15:43;11.30;45.10
33943;DHT22;66763;47.856;17.462;2023-02-15T04:18:27;11.40;45.20
33943;DHT22;66763;47.856;17.462;2023-02-15T04:21:11;11.50;45.20
33943;DHT22;66763;47.856;17.462;2023-02-15T04:23:55;11.70;44.90
33943;DHT22;66763;47.856;17.462;2023-02-15T04:26:40;12.00;44.70
33943;DHT22;66763;47.856;17.462;2023-02-15T04:29:05;12.20;44.20
33943;DHT22;66763;47.856;17.462;2023-02-15T04:31:31;12.40;43.90
33943;DHT22;66763;47.856;17.462;2023-02-15T04:33:56;12.60;43.70
33943;DHT22;66763;47.856;17.462;2023-02-15T04:36:22;12.80;43.40
33943;DHT22;66763;47.856;17.462;2023-02-15T04:38:47;12.90;43.20
33943;DHT22;66763;47.856;17.462;2023-02-15T04:41:12;13.10;43.00
33943;DHT22;66763;47.856;17.462;2023-02-15T04:43:38;13.20;42.80
33943;DHT22;66763;47.856;17.462;2023-02-15T04:46:04;13.30;42.70
33943;DHT22;66763;47.856;17.462;2023-02-15T04:48:29;13.40;42.50
33943;DHT22;66763;47.856;17.462;2023-02-15T04:50:55;13.50;42.40
33943;DHT22;66763;47.856;17.462;2023-02-15T04:53:20;13.50;42.20
33943;DHT22;66763;47.856;17.462;2023-02-15T04:55:46;13.60;42.20
33943;DHT22;66763;47.856;17.462;2023-02-15T04:58:11;13.60;42.10
33943;DHT22;66763;47.856;17.462;2023-02-15T05:00:37;13.60;42.20
33943;DHT22;66763;47.856;17.462;2023-02-15T05:03:02;13.60;42.20
33943;DHT22;66763;47.856;17.462;2023-02-15T05:05:28;13.50;42.10
33943;DHT22;66763;47.856;17.462;2023-02-15T05:07:54;13.50;42.30
33943;DHT22;66763;47.856;17.462;2023-02-15T05:10:19;13.50;42.30
33943;DHT22;66763;47.856;17.462;2023-02-15T05:12:45;13.40;42.40
33943;DHT22;66763;47.856;17.462;2023-02-15T05:15:10;13.40;42.40
33943;DHT22;66763;47.856;17.462;2023-02-15T05:17:36;13.30;42.50
33943;DHT22;66763;47.856;17.462;2023-02-15T05:20:02;13.30;42.70
33943;DHT22;66763;47.856;17.462;2023-02-15T05:22:27;13.20;42.70
33943;DHT22;66763;47.856;17.462;2023-02-15T05:24:53;13.20;42.80
33943;DHT22;66763;47.856;17.462;2023-02-15T05:27:37;13.10;42.80
33943;DHT22;66763;47.856;17.462;2023-02-15T05:30:21;13.00;42.90
33943;DHT22;66763;47.856;17.462;2023-02-15T05:32:47;13.00;43.10
33943;DHT22;66763;47.856;17.462;2023-02-15T05:35:13;13.00;43.10
33943;DHT22;66763;47.856;17.462;2023-02-15T05:37:39;12.90;43.20
33943;DHT22;66763;47.856;17.462;2023-02-15T05:40:04;12.90;43.30
33943;DHT22;66763;47.856;17.462;2023-02-15T05:42:30;12.80;43.30
33943;DHT22;66763;47.856;17.462;2023-02-15T05:44:55;12.80;43.40
33943;DHT22;66763;47.856;17.462;2023-02-15T05:47:21;12.70;43.40
33943;DHT22;66763;47.856;17.462;2023-02-15T05:49:46;12.70;43.50
33943;DHT22;66763;47.856;17.462;2023-02-15T05:52:12;12.60;43.50
33943;DHT22;66763;47.856;17.462;2023-02-15T05:54:37;12.60;43.60
33943;DHT22;66763;47.856;17.462;2023-02-15T05:57:03;12.60;43.60
33943;DHT22;66763;47.856;17.462;2023-02-15T05:59:28;12.50;43.60
33943;DHT22;66763;47.856;17.462;2023-02-15T06:01:54;12.50;43.70
33943;DHT22;66763;47.856;17.462;2023-02-15T06:04:19;12.40;43.70
33943;DHT22;66763;47.856;17.462;2023-02-15T06:06:45;12.40;43.80
33943;DHT22;66763;47.856;17.462;2023-02-15T06:09:11;12.40;43.90
33943;DHT22;66763;47.856;17.462;2023-02-15T06:11:37;12.40;44.00
33943;DHT22;66763;47.856;17.462;2023-02-15T06:14:03;12.30;43.90
33943;DHT22;66763;47.856;17.462;2023-02-15T06:16:28;12.30;44.00
33943;DHT22;66763;47.856;17.462;2023-02-15T06:18:54;12.30;44.00
33943;DHT22;66763;47.856;17.462;2023-02-15T06:21:19;12.30;44.00
33943;DHT22;66763;47.856;17.462;2023-02-15T06:23:45;12.30;44.00
33943;DHT22;66763;47.856;17.462;2023-02-15T06:26:10;12.30;44.10
33943;DHT22;66763;47.856;17.462;2023-02-15T06:28:36;12.30;44.10
33943;DHT22;66763;47.856;17.462;2023-02-15T06:31:02;12.20;44.10
33943;DHT22;66763;47.856;17.462;2023-02-15T06:33:28;12.20;44.10
33943;DHT22;66763;47.856;17.462;2023-02-15T06:35:55;12.20;44.10
33943;DHT22;66763;47.856;17.462;2023-02-15T06:38:21;12.20;44.10
33943;DHT22;66763;47.856;17.462;2023-02-15T06:40:47;12.20;44.20
33943;DHT22;66763;47.856;17.462;2023-02-15T06:43:13;12.10;44.10
33943;DHT22;66763;47.856;17.462;2023-02-15T06:45:38;12.10;44.10
33943;DHT22;66763;47.856;17.462;2023-02-15T06:48:04;12.10;44.10
33943;DHT22;66763;47.856;17.462;2023-02-15T06:50:32;12.10;44.10
33943;DHT22;66763;47.856;17.462;2023-02-15T06:52:58;12.10;44.20
33943;DHT22;66763;47.856;17.462;2023-02-15T06:55:24;12.10;44.20
33943;DHT22;66763;47.856;17.462;2023-02-15T06:57:49;12.00;44.20
33943;DHT22;66763;47.856;17.462;2023-02-15T07:00:15;12.00;44.20
33943;DHT22;66763;47.856;17.462;2023-02-15T07:02:40;12.00;44.20
33943;DHT22;66763;47.856;17.462;2023-02-15T07:05:06;11.90;44.20
33943;DHT22;66763;47.856;17.462;2023-02-15T07:07:31;11.90;44.20
33943;DHT22;66763;47.856;17.462;2023-02-15T07:09:57;11.90;44.20
33943;DHT22;66763;47.856;17.462;2023-02-15T07:12:22;11.90;44.20
33943;DHT22;66763;47.856;17.462;2023-02-15T07:15:07;11.90;44.30
33943;DHT22;66763;47.856;17.462;2023-02-15T07:17:33;11.90;44.30
33943;DHT22;66763;47.856;17.462;2023-02-15T07:19:58;11.80;44.30
33943;DHT22;66763;47.856;17.462;2023-02-15T07:22:24;11.80;44.30
33943;DHT22;66763;47.856;17.462;2023-02-15T07:24:49;11.80;44.40
33943;DHT22;66763;47.856;17.462;2023-02-15T07:27:15;11.80;44.40
33943;DHT22;66763;47.856;17.462;2023-02-15T07:29:40;11.80;44.40
33943;DHT22;66763;47.856;17.462;2023-02-15T07:32:06;11.80;44.40
33943;DHT22;66763;47.856;17.462;2023-02-15T07:34:31;11.80;44.30
33943;DHT22;66763;47.856;17.462;2023-02-15T07:36:57;11.80;44.30
33943;DHT22;66763;47.856;17.462;2023-02-15T07:39:22;11.80;44.40
33943;DHT22;66763;47.856;17.462;2023-02-15T07:41:48;11.70;44.30
33943;DHT22;66763;47.856;17.462;2023-02-15T07:44:14;11.70;44.30
33943;DHT22;66763;47.856;17.462;2023-02-15T07:46:39;11.70;44.40
33943;DHT22;66763;47.856;17.462;2023-02-15T07:49:05;11.70;44.40
33943;DHT22;66763;47.856;17.462;2023-02-15T07:51:30;11.70;44.50
33943;DHT22;66763;47.856;17.462;2023-02-15T07:53:56;11.70;44.50
33943;DHT22;66763;47.856;17.462;2023-02-15T07:56:21;11.70;44.50
33943;DHT22;66763;47.856;17.462;2023-02-15T07:58:47;11.70;44.50
33943;DHT22;66763;47.856;17.462;2023-02-15T08:01:16;11.60;44.50
33943;DHT22;66763;47.856;17.462;2023-02-15T08:03:41;11.60;44.50
33943;DHT22;66763;47.856;17.462;2023-02-15T08:06:07;11.60;44.50
33943;DHT22;66763;47.856;17.462;2023-02-15T08:08:35;11.60;44.50
33943;DHT22;66763;47.856;17.462;2023-02-15T08:11:02;11.60;44.50
33943;DHT22;66763;47.856;17.462;2023-02-15T08:13:47;11.60;44.50
33943;DHT22;66763;47.856;17.462;2023-02-15T08:18:51;11.60;44.70
33943;DHT22;66763;47.856;17.462;2023-02-15T08:21:17;11.50;44.60
33943;DHT22;66763;47.856;17.462;2023-02-15T08:23:43;11.50;44.60
33943;DHT22;66763;47.856;17.462;2023-02-15T08:26:09;11.50;44.70
33943;DHT22;66763;47.856;17.462;2023-02-15T08:28:34;11.60;44.70
33943;DHT22;66763;47.856;17.462;2023-02-15T08:31:09;11.50;44.60
33943;DHT22;66763;47.856;17.462;2023-02-15T08:33:36;11.50;44.60
33943;DHT22;66763;47.856;17.462;2023-02-15T08:36:05;11.50;44.60
33943;DHT22;66763;47.856;17.462;2023-02-15T08:38:31;11.50;44.70
33943;DHT22;66763;47.856;17.462;2023-02-15T08:40:57;11.50;44.60
33943;DHT22;66763;47.856;17.462;2023-02-15T08:43:22;11.50;44.60
33943;DHT22;66763;47.856;17.462;2023-02-15T08:45:48;11.50;44.70
33943;DHT22;66763;47.856;17.462;2023-02-15T08:48:13;11.50;44.60
33943;DHT22;66763;47.856;17.462;2023-02-15T08:50:39;11.50;44.70
33943;DHT22;66763;47.856;17.462;2023-02-15T08:53:04;11.50;44.70
33943;DHT22;66763;47.856;17.462;2023-02-15T08:55:30;11.50;44.70
33943;DHT22;66763;47.856;17.462;2023-02-15T08:57:55;11.40;44.70
33943;DHT22;66763;47.856;17.462;2023-02-15T09:00:22;11.40;44.70
33943;DHT22;66763;47.856;17.462;2023-02-15T09:02:47;11.50;44.70
33943;DHT22;66763;47.856;17.462;2023-02-15T09:05:13;11.50;45.30
33943;DHT22;66763;47.856;17.462;2023-02-15T09:07:39;11.40;44.70
33943;DHT22;66763;47.856;17.462;2023-02-15T09:10:05;11.50;44.70
33943;DHT22;66763;47.856;17.462;2023-02-15T09:12:30;11.40;44.60
33943;DHT22;66763;47.856;17.462;2023-02-15T09:14:56;11.50;44.70
33943;DHT22;66763;47.856;17.462;2023-02-15T09:17:21;11.50;44.70
33943;DHT22;66763;47.856;17.462;2023-02-15T09:19:47;11.50;44.60
33943;DHT22;66763;47.856;17.462;2023-02-15T09:22:12;11.50;44.70
33943;DHT22;66763;47.856;17.462;2023-02-15T09:24:38;11.40;44.70
33943;DHT22;66763;47.856;17.462;2023-02-15T09:27:04;11.40;44.70
33943;DHT22;66763;47.856;17.462;2023-02-15T09:29:30;11.40;44.70
33943;DHT22;66763;47.856;17.462;2023-02-15T09:31:55;11.40;44.70
33943;DHT22;66763;47.856;17.462;2023-02-15T09:34:21;11.40;44.80
33943;DHT22;66763;47.856;17.462;2023-02-15T09:36:47;11.40;44.70
33943;DHT22;66763;47.856;17.462;2023-02-15T09:39:14;11.40;44.70
33943;DHT22;66763;47.856;17.462;2023-02-15T09:41:49;11.40;44.70
33943;DHT22;66763;47.856;17.462;2023-02-15T09:54:28;11.40;44.70
33943;DHT22;66763;47.856;17.462;2023-02-15T09:56:55;11.40;44.80
33943;DHT22;66763;47.856;17.462;2023-02-15T10:07:49;11.40;44.90
33943;DHT22;66763;47.856;17.462;2023-02-15T10:10:18;11.30;44.80
33943;DHT22;66763;47.856;17.462;2023-02-15T10:17:41;11.30;44.90
33943;DHT22;66763;47.856;17.462;2023-02-15T10:22:59;11.30;44.80
33943;DHT22;66763;47.856;17.462;2023-02-15T10:25:33;11.30;44.90
33943;DHT22;66763;47.856;17.462;2023-02-15T10:28:06;11.30;44.80
33943;DHT22;66763;47.856;17.462;2023-02-15T10:30:50;11.30;44.90
33943;DHT22;66763;47.856;17.462;2023-02-15T10:33:21;11.30;44.90
33943;DHT22;66763;47.856;17.462;2023-02-15T10:35:52;11.30;44.90
33943;DHT22;66763;47.856;17.462;2023-02-15T10:38:59;11.30;44.90
33943;DHT22;66763;47.856;17.462;2023-02-15T10:46:49;11.40;45.00
33943;DHT22;66763;47.856;17.462;2023-02-15T10:52:00;11.70;44.90
33943;DHT22;66763;47.856;17.462;2023-02-15T11:07:38;12.90;43.20
33943;DHT22;66763;47.856;17.462;2023-02-15T11:12:49;13.20;42.80
33943;DHT22;66763;47.856;17.462;2023-02-15T11:15:19;13.30;42.70
33943;DHT22;66763;47.856;17.462;2023-02-15T11:17:49;13.40;42.50
33943;DHT22;66763;47.856;17.462;2023-02-15T11:20:18;13.50;42.40
33943;DHT22;66763;47.856;17.462;2023-02-15T11:22:47;13.50;42.30
33943;DHT22;66763;47.856;17.462;2023-02-15T11:25:18;13.60;42.20
33943;DHT22;66763;47.856;17.462;2023-02-15T11:27:45;13.60;42.20
33943;DHT22;66763;47.856;17.462;2023-02-15T11:30:21;13.60;42.20
33943;DHT22;66763;47.856;17.462;2023-02-15T11:32:48;13.60;42.30
33943;DHT22;66763;47.856;17.462;2023-02-15T11:38:06;13.50;42.30
33943;DHT22;66763;47.856;17.462;2023-02-15T11:43:15;13.40;42.50
33943;DHT22;66763;47.856;17.462;2023-02-15T11:45:42;13.30;42.70
33943;DHT22;66763;47.856;17.462;2023-02-15T11:48:10;13.30;42.80
33943;DHT22;66763;47.856;17.462;2023-02-15T11:50:36;13.30;42.90
33943;DHT22;66763;47.856;17.462;2023-02-15T11:53:04;13.20;42.90
33943;DHT22;66763;47.856;17.462;2023-02-15T11:55:31;13.10;42.90
33943;DHT22;66763;47.856;17.462;2023-02-15T11:58:09;13.10;43.10
33943;DHT22;66763;47.856;17.462;2023-02-15T12:00:41;13.00;43.10
33943;DHT22;66763;47.856;17.462;2023-02-15T12:03:29;13.00;43.30
33943;DHT22;66763;47.856;17.462;2023-02-15T12:05:56;12.90;43.30
33943;DHT22;66763;47.856;17.462;2023-02-15T12:08:23;12.90;43.50
33943;DHT22;66763;47.856;17.462;2023-02-15T12:10:56;12.80;43.50
33943;DHT22;66763;47.856;17.462;2023-02-15T12:13:22;12.80;43.60
33943;DHT22;66763;47.856;17.462;2023-02-15T12:15:52;12.70;43.60
33943;DHT22;66763;47.856;17.462;2023-02-15T12:20:53;12.70;43.80
33943;DHT22;66763;47.856;17.462;2023-02-15T12:23:23;12.60;43.70
33943;DHT22;66763;47.856;17.462;2023-02-15T12:25:51;12.60;43.90
33943;DHT22;66763;47.856;17.462;2023-02-15T12:28:23;12.60;43.90
33943;DHT22;66763;47.856;17.462;2023-02-15T12:30:50;12.50;43.90
33943;DHT22;66763;47.856;17.462;2023-02-15T12:35:41;12.50;44.10
33943;DHT22;66763;47.856;17.462;2023-02-15T12:40:36;12.40;44.20
33943;DHT22;66763;47.856;17.462;2023-02-15T12:43:02;12.40;44.30
33943;DHT22;66763;47.856;17.462;2023-02-15T12:45:34;12.30;44.30
33943;DHT22;66763;47.856;17.462;2023-02-15T12:50:47;12.30;44.40
33943;DHT22;66763;47.856;17.462;2023-02-15T12:53:18;12.30;44.50
33943;DHT22;66763;47.856;17.462;2023-02-15T12:55:54;12.20;44.50
33943;DHT22;66763;47.856;17.462;2023-02-15T12:58:30;12.20;44.50
33943;DHT22;66763;47.856;17.462;2023-02-15T13:03:34;12.20;45.20
33943;DHT22;66763;47.856;17.462;2023-02-15T13:06:00;12.20;44.60
33943;DHT22;66763;47.856;17.462;2023-02-15T13:08:27;12.20;44.50
33943;DHT22;66763;47.856;17.462;2023-02-15T13:13:20;12.20;44.60
33943;DHT22;66763;47.856;17.462;2023-02-15T13:15:48;12.20;44.60
33943;DHT22;66763;47.856;17.462;2023-02-15T13:18:57;12.20;44.70
33943;DHT22;66763;47.856;17.462;2023-02-15T13:23:32;12.10;44.70
33943;DHT22;66763;47.856;17.462;2023-02-15T13:26:02;12.10;44.70
33943;DHT22;66763;47.856;17.462;2023-02-15T13:28:47;12.10;44.70
33943;DHT22;66763;47.856;17.462;2023-02-15T13:31:20;12.10;44.80
33943;DHT22;66763;47.856;17.462;2023-02-15T13:33:49;12.00;44.70
33943;DHT22;66763;47.856;17.462;2023-02-15T13:41:12;12.10;44.80
33943;DHT22;66763;47.856;17.462;2023-02-15T13:43:48;12.10;44.80
33943;DHT22;66763;47.856;17.462;2023-02-15T13:46:21;12.00;44.70
33943;DHT22;66763;47.856;17.462;2023-02-15T13:51:59;12.10;44.80
33943;DHT22;66763;47.856;17.462;2023-02-15T14:01:45;12.00;44.80
33943;DHT22;66763;47.856;17.462;2023-02-15T14:09:23;12.00;44.80
33943;DHT22;66763;47.856;17.462;2023-02-15T14:14:23;11.90;44.80
33943;DHT22;66763;47.856;17.462;2023-02-15T14:16:56;11.90;44.80
33943;DHT22;66763;47.856;17.462;2023-02-15T14:19:25;11.90;44.80
33943;DHT22;66763;47.856;17.462;2023-02-15T14:32:11;11.90;44.90
33943;DHT22;66763;47.856;17.462;2023-02-15T14:34:42;11.90;45.00
33943;DHT22;66763;47.856;17.462;2023-02-15T14:37:10;11.80;44.90
33943;DHT22;66763;47.856;17.462;2023-02-15T14:39:56;11.90;44.90
33943;DHT22;66763;47.856;17.462;2023-02-15T14:43:00;11.80;44.90
33943;DHT22;66763;47.856;17.462;2023-02-15T14:45:40;11.80;45.00
33943;DHT22;66763;47.856;17.462;2023-02-15T14:51:02;11.80;45.00
33943;DHT22;66763;47.856;17.462;2023-02-15T14:56:06;11.80;45.00
33943;DHT22;66763;47.856;17.462;2023-02-15T14:58:35;11.80;45.00
33943;DHT22;66763;47.856;17.462;2023-02-15T15:01:05;11.80;45.10
33943;DHT22;66763;47.856;17.462;2023-02-15T15:03:31;11.80;45.00
33943;DHT22;66763;47.856;17.462;2023-02-15T15:05:57;11.80;45.00
33943;DHT22;66763;47.856;17.462;2023-02-15T15:10:56;11.80;45.10
33943;DHT22;66763;47.856;17.462;2023-02-15T15:15:56;11.70;45.00
33943;DHT22;66763;47.856;17.462;2023-02-15T15:21:06;11.80;45.70
33943;DHT22;66763;47.856;17.462;2023-02-15T15:23:44;11.70;45.10
33943;DHT22;66763;47.856;17.462;2023-02-15T15:31:20;11.70;45.10
33943;DHT22;66763;47.856;17.462;2023-02-15T15:41:35;11.60;45.20
33943;DHT22;66763;47.856;17.462;2023-02-15T15:49:27;11.60;45.20
33943;DHT22;66763;47.856;17.462;2023-02-15T15:51:54;11.60;45.20
33943;DHT22;66763;47.856;17.462;2023-02-15T15:54:20;11.60;45.30
33943;DHT22;66763;47.856;17.462;2023-02-15T15:59:19;11.60;45.30
33943;DHT22;66763;47.856;17.462;2023-02-15T16:01:46;11.60;45.30
33943;DHT22;66763;47.856;17.462;2023-02-15T16:04:12;11.60;45.30
33943;DHT22;66763;47.856;17.462;2023-02-15T16:06:38;11.60;45.20
33943;DHT22;66763;47.856;17.462;2023-02-15T16:09:17;11.60;45.20
33943;DHT22;66763;47.856;17.462;2023-02-15T16:11:45;11.60;45.30
33943;DHT22;66763;47.856;17.462;2023-02-15T16:14:16;11.60;45.30
33943;DHT22;66763;47.856;17.462;2023-02-15T16:16:45;11.60;45.30
33943;DHT22;66763;47.856;17.462;2023-02-15T16:19:17;11.60;45.30
33943;DHT22;66763;47.856;17.462;2023-02-15T16:21:43;11.60;45.30
33943;DHT22;66763;47.856;17.462;2023-02-15T16:29:13;11.50;45.20
33943;DHT22;66763;47.856;17.462;2023-02-15T16:31:39;11.60;45.30
33943;DHT22;66763;47.856;17.462;2023-02-15T16:34:07;11.60;45.30
33943;DHT22;66763;47.856;17.462;2023-02-15T16:36:35;11.50;45.20
33943;DHT22;66763;47.856;17.462;2023-02-15T16:39:12;11.60;45.30
33943;DHT22;66763;47.856;17.462;2023-02-15T16:41:42;11.50;45.20
33943;DHT22;66763;47.856;17.462;2023-02-15T16:44:18;11.50;45.90
33943;DHT22;66763;47.856;17.462;2023-02-15T16:46:46;11.50;45.30
33943;DHT22;66763;47.856;17.462;2023-02-15T16:49:46;11.50;45.40
33943;DHT22;66763;47.856;17.462;2023-02-15T16:52:05;11.50;45.40
33943;DHT22;66763;47.856;17.462;2023-02-15T16:54:32;11.50;45.40
33943;DHT22;66763;47.856;17.462;2023-02-15T16:56:58;11.50;45.40
33943;DHT22;66763;47.856;17.462;2023-02-15T16:59:40;11.50;45.50
33943;DHT22;66763;47.856;17.462;2023-02-15T17:02:42;11.50;45.40
33943;DHT22;66763;47.856;17.462;2023-02-15T17:07:29;11.50;45.50
33943;DHT22;66763;47.856;17.462;2023-02-15T17:09:56;11.50;45.40
33943;DHT22;66763;47.856;17.462;2023-02-15T17:15:23;11.50;45.50
33943;DHT22;66763;47.856;17.462;2023-02-15T17:17:49;11.40;45.40
33943;DHT22;66763;47.856;17.462;2023-02-15T17:20:16;11.40;45.40
33943;DHT22;66763;47.856;17.462;2023-02-15T17:22:42;11.50;45.50
33943;DHT22;66763;47.856;17.462;2023-02-15T17:25:16;11.50;45.50
33943;DHT22;66763;47.856;17.462;2023-02-15T17:27:43;11.50;45.40
33943;DHT22;66763;47.856;17.462;2023-02-15T17:30:17;11.50;45.40
33943;DHT22;66763;47.856;17.462;2023-02-15T17:32:58;11.50;45.40
33943;DHT22;66763;47.856;17.462;2023-02-15T17:35:25;11.40;45.40
33943;DHT22;66763;47.856;17.462;2023-02-15T17:40:28;11.40;45.50
33943;DHT22;66763;47.856;17.462;2023-02-15T17:42:54;11.40;45.40
33943;DHT22;66763;47.856;17.462;2023-02-15T17:45:30;11.40;45.50
33943;DHT22;66763;47.856;17.462;2023-02-15T17:47:57;11.40;45.40
33943;DHT22;66763;47.856;17.462;2023-02-15T17:50:25;11.40;45.40
33943;DHT22;66763;47.856;17.462;2023-02-15T17:52:51;11.40;45.40
33943;DHT22;66763;47.856;17.462;2023-02-15T17:55:19;11.40;45.40
33943;DHT22;66763;47.856;17.462;2023-02-15T17:58:00;11.40;45.40
33943;DHT22;66763;47.856;17.462;2023-02-15T18:00:27;11.40;45.40
33943;DHT22;66763;47.856;17.462;2023-02-15T18:03:11;11.40;45.40
33943;DHT22;66763;47.856;17.462;2023-02-15T18:05:57;11.40;45.40
33943;DHT22;66763;47.856;17.462;2023-02-15T18:08:41;11.40;45.40
33943;DHT22;66763;47.856;17.462;2023-02-15T18:11:26;11.30;45.50
33943;DHT22;66763;47.856;17.462;2023-02-15T18:14:01;11.30;45.50
33943;DHT22;66763;47.856;17.462;2023-02-15T18:16:32;11.30;45.40
33943;DHT22;66763;47.856;17.462;2023-02-15T18:18:59;11.30;45.50
33943;DHT22;66763;47.856;17.462;2023-02-15T18:21:26;11.30;45.40
33943;DHT22;66763;47.856;17.462;2023-02-15T18:23:53;11.30;45.40
33943;DHT22;66763;47.856;17.462;2023-02-15T18:26:20;11.40;45.40
33943;DHT22;66763;47.856;17.462;2023-02-15T18:28:47;11.30;45.40
33943;DHT22;66763;47.856;17.462;2023-02-15T18:31:13;11.50;45.40
33943;DHT22;66763;47.856;17.462;2023-02-15T18:33:43;11.70;45.30
33943;DHT22;66763;47.856;17.462;2023-02-15T18:36:12;11.90;45.00